Weather observations for the past three days for
Concord, Buchanan Field
Imperial (Metric)
Date Time (pdt) Wind (mph) Vis. (mi.) Weather Sky Cond. Temperature (ºF) Relative Humidity Wind Chill (°F) Heat Index (°F) Pressure Precipitation (in)
Air Dwpt 6 hour altimeter (in) sea level (mb) 1 hr 3 hr 6 hr
Max. Min.
10 13:53 S 10 10.00 Fair CLR 75.9 53.1 45% 78 29.93 1012.1
10 12:53 S 14 10.00 Fair CLR 72 53.1 52% 29.95 1012.8
10 11:53 S 15 10.00 Fair CLR 68 52 57% 29.97 1013.4
10 10:53 S 13 10.00 Fair CLR 64 52 64 54 65% 29.97 1013.6
10 09:53 S 17 10.00 Fair CLR 62.1 51.1 67% 29.98 1013.7
10 08:53 S 18 10.00 Fair CLR 59 51.1 75% 29.97 1013.5
10 07:53 S 14 G 23 10.00 Partly Cloudy SCT012 57 51.1 81% 29.96 1013.1
10 06:53 S 15 10.00 Fair CLR 55 51.1 87% 29.94 1012.6
10 05:53 S 15 10.00 A Few Clouds FEW009 54 50 87% 29.93 1012.2
10 04:53 S 17 G 25 10.00 A Few Clouds FEW008 54 50 57 54 87% 29.93 1012.3
10 03:53 S 21 G 28 10.00 A Few Clouds and Breezy FEW008 54 50 87% 29.93 1012.2
10 02:53 S 16 G 28 10.00 A Few Clouds FEW008 54 51.1 90% 29.94 1012.3
10 01:53 S 18 G 24 10.00 Fair CLR 55 51.1 87% 29.93 1012.3
10 00:53 S 14 G 22 10.00 Fair CLR 55 51.1 87% 29.94 1012.3
09 23:53 S 15 10.00 Fair CLR 55.9 51.1 84% 29.93 1012.3
09 22:53 S 15 G 24 10.00 Fair CLR 57 51.1 80.1 57 81% 29.93 1012.1
09 21:53 S 20 G 29 10.00 Fair CLR 57 51.1 81% 29.93 1012.0
09 20:53 S 17 G 26 10.00 Fair CLR 60.1 51.1 72% 29.91 1011.5
09 19:53 S 17 10.00 Fair CLR 64 52 65% 29.89 1010.8
09 18:53 S 16 10.00 Fair CLR 71.1 53.1 53% 29.89 1010.8
09 17:53 S 13 10.00 Fair CLR 77 53.1 43% 78 29.88 1010.6
09 16:53 SW 9 10.00 Fair CLR 80.1 53.1 82.9 71.1 39% 80 29.89 1010.8
09 15:53 W 13 10.00 Fair CLR 81 55 41% 81 29.9 1011.0
09 14:53 W 13 10.00 Fair CLR 82 54 38% 81 29.91 1011.4
09 13:53 NW 16 10.00 Fair CLR 81 54 39% 81 29.92 1011.9
09 12:53 NW 10 10.00 Fair CLR 79 54 42% 79 29.94 1012.4
09 11:53 NW 8 10.00 Fair CLR 75 53.1 46% 78 29.96 1013.1
09 10:53 Vrbl 5 10.00 Fair CLR 71.1 53.1 71.1 54 53% 29.97 1013.6
09 09:53 Vrbl 7 10.00 Fair CLR 66 52 61% 29.99 1014.0
09 08:53 S 8 10.00 Fair CLR 62.1 51.1 67% 29.99 1014.1
09 07:53 S 9 10.00 Fair CLR 57.9 51.1 78% 29.99 1014.0
09 06:53 S 12 10.00 Fair CLR 55 50 83% 29.98 1013.7
09 05:53 S 13 10.00 Fair CLR 54 50 87% 29.97 1013.4
09 04:53 S 10 10.00 Fair CLR 54 50 57 54 87% 29.97 1013.4
09 03:53 S 12 10.00 Fair CLR 55 50 83% 29.97 1013.5
09 02:53 S 13 10.00 Fair CLR 55 50 83% 29.97 1013.5
09 01:53 S 14 10.00 Fair CLR 55 50 83% 29.98 1013.7
09 00:53 S 14 10.00 Fair CLR 55 50 83% 29.99 1014.2
08 23:53 S 15 10.00 Fair CLR 55.9 50 81% 29.99 1014.2
08 22:53 S 14 10.00 Fair CLR 57 50 75 57 78% 29.99 1014.3
08 21:53 S 13 10.00 Fair CLR 57.9 50 75% 29.99 1014.1
08 20:53 S 14 10.00 Fair CLR 61 51.1 70% 29.97 1013.6
08 19:53 S 14 10.00 Fair CLR 66 52 61% 29.96 1013.3
08 18:53 S 7 10.00 Fair CLR 72 53.1 52% 29.96 1013.1
08 17:53 SW 10 10.00 Fair CLR 73.9 53.1 48% 29.97 1013.5
08 16:53 W 13 10.00 Fair CLR 75 54 78.1 64.9 48% 78 29.97 1013.6
08 15:53 S 8 10.00 Fair CLR 77 53.1 43% 78 29.99 1014.2
08 14:53 SW 8 10.00 Fair CLR 75.9 53.1 45% 78 30.02 1015.1
08 13:53 W 13 G 18 10.00 Fair CLR 73.9 52 46% 30.04 1015.8
08 12:53 S 8 G 18 10.00 Fair CLR 71.1 53.1 53% 30.05 1016.2
08 11:53 S 14 10.00 Fair CLR 68 51.1 55% 30.07 1016.7
08 10:53 S 13 10.00 Fair CLR 64.9 50 64.9 51.1 59% 30.07 1017.0
08 09:53 S 14 10.00 Fair CLR 62.1 48.9 62% 30.07 1017.0
08 08:53 S 13 10.00 Fair CLR 57.9 48 70% 30.08 1017.1
08 07:53 SW 13 10.00 A Few Clouds FEW015 55.9 48 75% 30.08 1017.2
08 06:53 SW 12 10.00 Fair CLR 53.1 48 83% 30.07 1016.8
08 05:53 S 9 10.00 Fair CLR 52 48 86% 30.06 1016.4
08 04:53 SW 6 10.00 A Few Clouds FEW015 52 48 55.9 52 86% 30.06 1016.6
08 03:53 S 13 10.00 Fair CLR 53.1 48 83% 30.05 1016.2
08 02:53 S 13 10.00 Fair CLR 53.1 48 83% 30.05 1016.1
08 01:53 SW 13 10.00 Fair CLR 54 48.9 83% 30.05 1016.1
08 00:53 S 13 10.00 Mostly Cloudy BKN013 55 48.9 80% 30.05 1016.3
07 23:53 S 13 10.00 Fair CLR 55 50 83% 30.05 1016.1
07 22:53 S 10 10.00 Fair CLR 55.9 51.1 77 55.9 84% 30.04 1015.9
07 21:53 S 12 10.00 Fair CLR 57.9 52 81% 30.04 1015.7
07 20:53 SW 7 10.00 Fair CLR 61 52 72% 30.02 1015.0
07 19:53 W 9 10.00 Fair CLR 64.9 53.1 66% 30 1014.3
07 18:53 W 12 10.00 Fair CLR 69.1 53.1 57% 29.99 1014.2
07 17:53 W 13 10.00 Fair CLR 73 55 53% 29.99 1014.1
07 16:53 W 12 10.00 Fair CLR 75.9 55.9 78.1 64.9 50% 78 29.98 1014.0
07 15:53 NW 13 10.00 Fair CLR 78.1 55.9 47% 79 29.99 1014.0
07 14:53 NW 13 10.00 Fair CLR 75.9 55 48% 78 30.02 1015.1
Date Time (pdt) Wind (mph) Vis. (mi.) Weather Sky Cond. Air Dwpt Max. Min. Relative Humidity Wind Chill (°F) Heat Index (°F) altimeter (in) sea level (mb) 1 hr 3 hr 6 hr
6 hour
Temperature (ºF) Pressure Precipitation (in)